Muncy, Pennsylvania
Current Conditions -  °F | °C
As of 5:54 PM on Saturday 25 Oct 2014 (Local Time) from KIPT Reporting Station
Broken Clouds Broken Clouds  
Wind Chill: 66°   Ceiling: 6500
Heat Index: 66°   Visibility: 10mi
Dew Point: 46°   Wind: 9mph
Humidity: 48%   Direction: 250°WSW
Pressure: 29.64"   Gusts: NA
Location:  41.21°N, 76.79°W
Report Text: KIPT 252154Z 25008KT 10SM BKN065 19/08 A2964 RMK AO2 SLP036 T01890078
Loading
Personal Weather Stations






























Interactive Weather Map
Tropical Storm Tracking
New forecast layout! Learn more

10-Day Weather Forecast

Advertisements
Track Severe Weather on mobile